Time;durP1;ratioP1;P1;durP2;ratioP2;P2;SDS_P1;SDS_P2;PMS_P1;PMS_P2;Temp;Humidity;BMP_temperature;BMP_pressure;BME280_temperature;BME280_humidity;BME280_pressure;Samples;Min_cycle;Max_cycle;Signal;HPM_P1;HPM_P2
2024/04/06 00:01:28;;;;;;;7.80;1.90;;;14.80;99.90;;;;;;6171855;28;20088;-84
2024/04/06 00:04:29;;;;;;;6.40;1.83;;;14.80;99.90;;;;;;6205978;28;20050;-83
2024/04/06 00:07:30;;;;;;;6.68;1.80;;;14.80;99.90;;;;;;6205184;28;20588;-84
2024/04/06 00:10:30;;;;;;;5.18;1.95;;;14.80;99.90;;;;;;6203456;28;20056;-81
2024/04/06 00:13:31;;;;;;;5.85;1.48;;;14.70;99.90;;;;;;6188220;28;20053;-83
2024/04/06 00:16:36;;;;;;;9.23;2.05;;;14.80;99.90;;;;;;6184231;28;20485;-83
2024/04/06 00:19:37;;;;;;;7.50;1.88;;;14.80;99.90;;;;;;6164783;28;20058;-82
2024/04/06 00:22:37;;;;;;;10.32;2.00;;;14.80;99.90;;;;;;6204135;28;20065;-83
2024/04/06 00:25:38;;;;;;;8.35;1.85;;;14.80;99.90;;;;;;6204556;28;20062;-83
2024/04/06 00:28:40;;;;;;;8.95;1.88;;;14.80;99.90;;;;;;6198757;28;20057;-82
2024/04/06 00:31:41;;;;;;;6.45;1.50;;;14.80;99.90;;;;;;6189240;28;20127;-83
2024/04/06 00:34:42;;;;;;;4.78;1.33;;;14.90;99.90;;;;;;6187966;28;20121;-83
2024/04/06 00:37:43;;;;;;;4.55;1.58;;;15.00;99.90;;;;;;6204855;28;20136;-84
2024/04/06 00:40:44;;;;;;;6.40;1.70;;;15.10;99.90;;;;;;6188514;28;20061;-83
2024/04/06 00:43:45;;;;;;;6.63;1.83;;;15.20;99.90;;;;;;6185682;28;20053;-84
2024/04/06 00:46:45;;;;;;;6.07;1.63;;;15.20;99.90;;;;;;6188611;28;20054;-85
2024/04/06 00:49:46;;;;;;;6.32;1.45;;;15.30;99.90;;;;;;6188804;28;20141;-85
2024/04/06 00:52:47;;;;;;;6.57;1.92;;;15.40;99.90;;;;;;6188907;28;20069;-85
2024/04/06 00:55:48;;;;;;;4.78;1.88;;;15.50;99.90;;;;;;6204404;28;20045;-84
2024/04/06 00:58:49;;;;;;;7.53;1.88;;;15.60;99.90;;;;;;6177958;28;20052;-83
2024/04/06 01:01:51;;;;;;;6.57;1.90;;;15.60;99.90;;;;;;6188495;28;20096;-82
2024/04/06 01:04:51;;;;;;;6.13;1.60;;;15.60;99.90;;;;;;6188201;28;20060;-83
2024/04/06 01:07:52;;;;;;;5.22;1.70;;;15.70;99.90;;;;;;6188036;28;20057;-82
2024/04/06 01:10:53;;;;;;;5.80;1.67;;;15.60;99.90;;;;;;6182076;28;20057;-82
2024/04/06 01:13:53;;;;;;;7.93;1.85;;;15.50;99.90;;;;;;6168652;28;20116;-84
2024/04/06 01:16:54;;;;;;;6.95;1.80;;;15.50;99.90;;;;;;6188595;28;20068;-84
2024/04/06 01:19:55;;;;;;;7.40;2.15;;;15.50;99.90;;;;;;6187987;28;20061;-85
2024/04/06 01:22:55;;;;;;;6.75;2.13;;;15.40;99.90;;;;;;6188720;28;20054;-84
2024/04/06 01:25:56;;;;;;;4.15;1.70;;;15.40;99.90;;;;;;6204461;28;20085;-84
2024/04/06 01:28:57;;;;;;;5.57;2.10;;;15.40;99.90;;;;;;6169055;28;20526;-84
2024/04/06 01:31:57;;;;;;;7.80;1.85;;;15.40;99.90;;;;;;6187636;28;20057;-84
2024/04/06 01:34:59;;;;;;;3.90;1.60;;;15.30;99.90;;;;;;6186929;28;20066;-83
2024/04/06 01:38:00;;;;;;;6.93;1.98;;;15.30;99.90;;;;;;6205219;28;20057;-84
2024/04/06 01:41:00;;;;;;;5.53;1.95;;;15.30;99.90;;;;;;6186773;28;20061;-85
2024/04/06 01:44:01;;;;;;;8.15;1.92;;;15.30;99.90;;;;;;6181879;28;20771;-84
2024/04/06 01:47:02;;;;;;;4.78;1.55;;;15.30;99.90;;;;;;6187153;28;20104;-85
2024/04/06 01:50:02;;;;;;;5.78;1.70;;;15.30;99.90;;;;;;6187584;28;20501;-83
2024/04/06 01:53:03;;;;;;;6.03;1.95;;;15.40;99.90;;;;;;6203985;28;20060;-84
2024/04/06 01:56:04;;;;;;;8.25;2.03;;;15.40;99.90;;;;;;6186949;28;20089;-85
2024/04/06 01:59:04;;;;;;;5.75;1.75;;;15.40;99.90;;;;;;6173349;28;20046;-84
2024/04/06 02:02:06;;;;;;;5.53;1.65;;;15.40;99.90;;;;;;6190509;28;20065;-84
2024/04/06 02:05:06;;;;;;;6.38;2.17;;;15.40;99.90;;;;;;6188603;28;20046;-85
2024/04/06 02:08:07;;;;;;;5.40;1.90;;;15.40;99.90;;;;;;6209324;28;20057;-84
2024/04/06 02:11:08;;;;;;;7.03;2.20;;;15.50;99.30;;;;;;6191598;28;20702;-82
2024/04/06 02:14:08;;;;;;;6.78;2.00;;;15.50;98.40;;;;;;6182037;28;20058;-83
2024/04/06 02:17:09;;;;;;;7.13;1.90;;;15.50;97.90;;;;;;6192309;28;20065;-84
2024/04/06 02:20:10;;;;;;;6.63;2.10;;;15.50;96.80;;;;;;6193921;28;20116;-85
2024/04/06 02:23:11;;;;;;;6.72;1.80;;;15.60;94.60;;;;;;6193607;28;20444;-85
2024/04/06 02:26:11;;;;;;;5.65;2.08;;;15.70;93.70;;;;;;6192537;28;20046;-84
2024/04/06 02:29:12;;;;;;;7.65;2.28;;;15.70;93.50;;;;;;6187929;28;20050;-85
2024/04/06 02:32:12;;;;;;;5.63;2.08;;;15.70;92.20;;;;;;6208888;28;20084;-85
2024/04/06 02:35:14;;;;;;;6.40;2.22;;;15.70;91.50;;;;;;6209154;28;20097;-85
2024/04/06 02:38:15;;;;;;;6.53;2.35;;;15.70;91.30;;;;;;6192363;28;20056;-84
2024/04/06 02:41:15;;;;;;;6.70;2.00;;;15.60;91.50;;;;;;6167807;28;20058;-85
2024/04/06 02:44:16;;;;;;;4.97;2.10;;;15.60;91.60;;;;;;6171994;28;20083;-88
2024/04/06 02:47:17;;;;;;;7.80;2.28;;;15.50;92.40;;;;;;6190994;28;20062;-85
2024/04/06 02:50:17;;;;;;;5.38;2.10;;;15.50;92.90;;;;;;6194246;28;20062;-86
2024/04/06 02:53:18;;;;;;;6.63;2.15;;;15.40;93.60;;;;;;6193781;28;20073;-86
2024/04/06 02:56:19;;;;;;;6.57;2.15;;;15.40;94.10;;;;;;6193823;28;20060;-87
2024/04/06 02:59:20;;;;;;;8.75;2.25;;;15.30;93.50;;;;;;6179505;28;20089;-87
2024/04/06 03:02:22;;;;;;;7.15;2.10;;;15.30;93.70;;;;;;6194212;28;20057;-87
2024/04/06 03:05:23;;;;;;;6.68;1.95;;;15.20;94.00;;;;;;6194040;28;20054;-86
2024/04/06 03:08:23;;;;;;;6.63;2.05;;;15.20;94.20;;;;;;6209918;28;20505;-87
2024/04/06 03:11:24;;;;;;;9.07;2.28;;;15.20;94.60;;;;;;6192910;28;20049;-87
2024/04/06 03:14:25;;;;;;;7.40;2.15;;;15.10;94.60;;;;;;6191656;28;20054;-85
2024/04/06 03:17:26;;;;;;;9.23;2.42;;;15.20;94.60;;;;;;6191655;28;20423;-84
2024/04/06 03:20:27;;;;;;;5.32;2.03;;;15.10;94.00;;;;;;6207693;28;20049;-86
2024/04/06 03:23:27;;;;;;;6.30;2.30;;;15.10;93.90;;;;;;6189833;28;20066;-85
2024/04/06 03:26:28;;;;;;;7.60;2.35;;;15.10;93.80;;;;;;6191756;28;20054;-84
2024/04/06 03:29:29;;;;;;;7.75;2.40;;;15.10;93.50;;;;;;6190099;28;20049;-83
2024/04/06 03:32:29;;;;;;;7.95;2.10;;;15.10;93.40;;;;;;6190431;28;20452;-83
2024/04/06 03:35:31;;;;;;;9.07;2.30;;;15.10;93.50;;;;;;6191139;28;20578;-84
2024/04/06 03:38:31;;;;;;;7.45;2.60;;;15.00;92.40;;;;;;6190451;28;20053;-83
2024/04/06 03:41:33;;;;;;;6.78;2.30;;;15.10;91.70;;;;;;6207222;28;20058;-82
2024/04/06 03:44:33;;;;;;;11.52;2.85;;;15.10;91.00;;;;;;6185704;28;20057;-83
2024/04/06 03:47:34;;;;;;;8.32;2.65;;;15.10;91.30;;;;;;6190343;28;20058;-84
2024/04/06 03:50:34;;;;;;;9.00;2.42;;;15.00;91.40;;;;;;6205648;28;20057;-84
2024/04/06 03:53:36;;;;;;;10.75;2.45;;;15.10;91.10;;;;;;6206251;28;20104;-84
2024/04/06 03:56:37;;;;;;;10.10;2.50;;;15.00;91.60;;;;;;6189724;28;20185;-84
2024/04/06 03:59:38;;;;;;;7.20;2.47;;;14.90;91.50;;;;;;6169149;28;20144;-85
2024/04/06 04:02:39;;;;;;;7.97;2.50;;;14.90;91.90;;;;;;6203410;28;20505;-85
2024/04/06 04:05:39;;;;;;;6.38;1.95;;;14.80;92.20;;;;;;6203447;28;20489;-85
2024/04/06 04:08:40;;;;;;;9.00;2.55;;;14.80;92.60;;;;;;6190479;28;20058;-84
2024/04/06 04:11:41;;;;;;;7.65;2.35;;;14.70;93.10;;;;;;6190570;28;20057;-84
2024/04/06 04:14:41;;;;;;;7.60;2.50;;;14.70;93.80;;;;;;6190795;28;20092;-84
2024/04/06 04:17:42;;;;;;;8.88;2.30;;;14.60;94.20;;;;;;6203896;28;20058;-84
2024/04/06 04:20:43;;;;;;;6.45;2.35;;;14.50;94.70;;;;;;6187741;28;20072;-84
2024/04/06 04:23:43;;;;;;;6.95;2.50;;;14.60;95.20;;;;;;6185912;28;20068;-86
2024/04/06 04:26:44;;;;;;;11.48;2.80;;;14.50;95.60;;;;;;6188432;28;20668;-86
2024/04/06 04:29:45;;;;;;;8.23;2.60;;;14.50;95.20;;;;;;6177778;28;20151;-85
2024/04/06 04:32:45;;;;;;;6.55;2.53;;;14.50;95.00;;;;;;6188288;28;20060;-86
2024/04/06 04:35:46;;;;;;;7.90;2.47;;;14.60;94.90;;;;;;6188920;28;20629;-86
2024/04/06 04:38:47;;;;;;;11.52;3.28;;;14.50;95.40;;;;;;6189365;28;20057;-85
2024/04/06 04:41:47;;;;;;;11.90;2.65;;;14.50;95.30;;;;;;6189849;28;20062;-84
2024/04/06 04:44:48;;;;;;;6.53;2.40;;;14.50;95.90;;;;;;6206098;28;20531;-85
2024/04/06 04:47:48;;;;;;;7.63;2.72;;;14.40;95.20;;;;;;6190548;28;20476;-84
2024/04/06 04:50:49;;;;;;;7.47;2.42;;;14.50;95.40;;;;;;6189330;28;20394;-86
2024/04/06 04:53:50;;;;;;;7.55;2.50;;;14.40;95.40;;;;;;6189211;28;20085;-84
2024/04/06 04:56:51;;;;;;;6.78;2.67;;;14.50;94.40;;;;;;6188655;28;20088;-84
2024/04/06 04:59:51;;;;;;;7.50;2.45;;;14.40;94.70;;;;;;6170451;28;20780;-83
2024/04/06 05:02:52;;;;;;;8.35;2.40;;;14.50;93.40;;;;;;6205158;28;20085;-85
2024/04/06 05:05:53;;;;;;;5.07;2.15;;;14.50;92.80;;;;;;6189693;28;20496;-85
2024/04/06 05:08:53;;;;;;;5.50;1.92;;;14.50;92.50;;;;;;6188312;28;20539;-85
2024/04/06 05:11:54;;;;;;;8.15;2.35;;;14.50;92.20;;;;;;6190063;28;20076;-85
2024/04/06 05:14:55;;;;;;;8.00;2.33;;;14.50;91.90;;;;;;6179815;28;20078;-87
2024/04/06 05:17:56;;;;;;;9.88;2.53;;;14.40;92.10;;;;;;6190330;28;20089;-86
2024/04/06 05:20:57;;;;;;;9.43;2.63;;;14.50;91.20;;;;;;6189988;28;20057;-86
2024/04/06 05:23:58;;;;;;;9.40;2.50;;;14.50;90.60;;;;;;6189057;28;20064;-85
2024/04/06 05:26:59;;;;;;;8.45;2.40;;;14.60;88.40;;;;;;6191060;28;20046;-87
2024/04/06 05:29:59;;;;;;;7.25;2.40;;;14.60;86.80;;;;;;6190020;28;20050;-85
2024/04/06 05:33:00;;;;;;;5.30;2.20;;;14.60;84.80;;;;;;6186599;28;20054;-87
2024/04/06 05:36:04;;;;;;;9.30;2.40;;;14.70;80.30;;;;;;6190843;28;20054;-86
2024/04/06 05:39:05;;;;;;;10.93;2.45;;;14.80;76.90;;;;;;6190384;28;20056;-85
2024/04/06 05:42:06;;;;;;;6.28;2.17;;;14.90;74.90;;;;;;6190670;28;20125;-85
2024/04/06 05:45:07;;;;;;;6.75;2.58;;;15.00;74.30;;;;;;6175726;28;20050;-85
2024/04/06 05:48:08;;;;;;;6.80;2.35;;;15.00;74.20;;;;;;6189646;28;20058;-86
2024/04/06 05:51:09;;;;;;;8.82;2.40;;;15.00;71.00;;;;;;6190857;28;20509;-86
2024/04/06 05:54:09;;;;;;;8.63;2.20;;;15.10;70.60;;;;;;6205282;28;20061;-87
2024/04/06 05:57:10;;;;;;;6.53;2.17;;;15.20;64.40;;;;;;6191392;28;20501;-86
2024/04/06 06:00:11;;;;;;;6.05;2.00;;;15.30;60.90;;;;;;6175154;28;20062;-86
2024/04/06 06:03:12;;;;;;;6.18;2.15;;;15.40;59.60;;;;;;6206126;28;20050;-88
2024/04/06 06:06:13;;;;;;;7.47;2.35;;;15.30;58.90;;;;;;6191947;28;20143;-87
2024/04/06 06:09:15;;;;;;;6.90;2.38;;;15.40;56.00;;;;;;6207406;28;20054;-85
2024/04/06 06:12:16;;;;;;;7.50;2.35;;;15.50;56.10;;;;;;6171775;28;20054;-87
2024/04/06 06:15:17;;;;;;;6.50;2.10;;;15.40;56.00;;;;;;6204690;28;20054;-87
2024/04/06 06:18:18;;;;;;;5.60;2.17;;;15.40;58.10;;;;;;6214068;28;20116;-86
2024/04/06 06:21:19;;;;;;;6.72;2.53;;;15.50;56.10;;;;;;6220276;28;20064;-86
2024/04/06 06:24:20;;;;;;;7.25;2.33;;;15.50;52.70;;;;;;6202290;28;20054;-86
2024/04/06 06:27:20;;;;;;;6.75;1.95;;;15.70;51.20;;;;;;6208078;28;20050;-88
2024/04/06 06:30:21;;;;;;;6.47;2.17;;;15.70;45.70;;;;;;6180366;28;20062;-87
2024/04/06 06:33:22;;;;;;;6.25;2.25;;;15.80;42.60;;;;;;6190961;28;20624;-86
2024/04/06 06:36:23;;;;;;;9.13;2.40;;;15.90;40.00;;;;;;6189146;28;20053;-86
2024/04/06 06:39:24;;;;;;;8.77;1.90;;;16.10;38.10;;;;;;6189178;28;20042;-85
2024/04/06 06:42:24;;;;;;;3.97;1.58;;;16.70;23.70;;;;;;6189380;28;20054;-86
2024/04/06 06:45:25;;;;;;;4.38;1.63;;;17.40;9.90;;;;;;6190879;28;20049;-86
2024/04/06 06:48:26;;;;;;;5.75;1.75;;;18.20;1.00;;;;;;6192243;28;20093;-86
2024/04/06 06:51:27;;;;;;;7.28;2.00;;;18.50;1.00;;;;;;6193243;28;20490;-85
2024/04/06 06:54:27;;;;;;;5.18;1.80;;;19.20;1.00;;;;;;6209605;28;20429;-88
2024/04/06 06:57:28;;;;;;;5.15;1.60;;;19.60;1.00;;;;;;6210881;28;20100;-87
2024/04/06 07:00:29;;;;;;;6.80;1.63;;;19.80;1.00;;;;;;6191233;28;20501;-88
2024/04/06 07:03:30;;;;;;;6.60;1.58;;;19.10;1.00;;;;;;6193738;28;20481;-84
2024/04/06 07:06:31;;;;;;;4.30;1.52;;;19.20;1.00;;;;;;6182711;28;20054;-85
2024/04/06 07:09:31;;;;;;;7.53;2.03;;;18.90;1.00;;;;;;6207660;28;20058;-84
2024/04/06 07:12:32;;;;;;;6.05;1.80;;;18.80;1.00;;;;;;6208550;28;20049;-85
2024/04/06 07:15:33;;;;;;;6.38;1.85;;;19.30;1.00;;;;;;6157955;28;20046;-85
2024/04/06 07:18:33;;;;;;;7.28;1.77;;;19.20;1.00;;;;;;6191084;28;20089;-85
2024/04/06 07:21:34;;;;;;;4.70;1.40;;;19.00;1.00;;;;;;6193600;28;20062;-88
2024/04/06 07:24:35;;;;;;;6.55;1.60;;;18.60;1.00;;;;;;6192545;28;20062;-85
2024/04/06 07:27:36;;;;;;;6.90;1.67;;;18.40;1.00;;;;;;6192628;28;20097;-87
2024/04/06 07:30:37;;;;;;;11.88;2.15;;;18.30;1.00;;;;;;6179058;28;20049;-85
2024/04/06 07:33:38;;;;;;;3.63;1.55;;;18.10;1.00;;;;;;6192677;28;20072;-86
2024/04/06 07:36:38;;;;;;;7.93;2.28;;;18.10;1.00;;;;;;6193235;28;20493;-86
2024/04/06 07:39:39;;;;;;;4.10;1.55;;;18.10;1.00;;;;;;6208901;28;20049;-85
2024/04/06 07:42:40;;;;;;;6.35;1.60;;;18.10;1.00;;;;;;6192371;28;20559;-85
2024/04/06 07:45:41;;;;;;;7.70;1.67;;;18.20;1.00;;;;;;6206550;28;20053;-87
2024/04/06 07:48:41;;;;;;;5.72;1.88;;;18.20;1.00;;;;;;6188314;28;20058;-82
2024/04/06 07:51:42;;;;;;;10.43;2.20;;;18.20;1.00;;;;;;6190348;28;20050;-86
2024/04/06 07:54:43;;;;;;;7.80;2.28;;;18.20;1.00;;;;;;6185028;28;20065;-83
2024/04/06 07:57:44;;;;;;;9.50;2.70;;;18.30;1.00;;;;;;6200371;28;20054;-84
2024/04/06 08:00:44;;;;;;;6.03;2.17;;;18.40;1.00;;;;;;6172804;28;20060;-83
2024/04/06 08:03:45;;;;;;;9.40;2.25;;;18.50;1.00;;;;;;6202957;28;20046;-82
2024/04/06 08:06:46;;;;;;;7.88;2.20;;;18.60;1.00;;;;;;6187888;28;20058;-82
2024/04/06 08:09:46;;;;;;;5.70;1.63;;;18.80;1.00;;;;;;6185624;28;20053;-81
2024/04/06 08:12:47;;;;;;;6.47;1.70;;;19.20;1.00;;;;;;6183219;28;20074;-82
2024/04/06 08:15:48;;;;;;;6.72;2.00;;;19.30;1.00;;;;;;6177035;28;20140;-83
2024/04/06 08:18:49;;;;;;;4.65;1.75;;;19.40;1.00;;;;;;6183581;28;20065;-83
2024/04/06 08:21:49;;;;;;;4.63;1.55;;;19.60;1.00;;;;;;6172114;28;20053;-83
2024/04/06 08:24:50;;;;;;;5.70;1.83;;;19.80;1.00;;;;;;6185432;28;20080;-84
2024/04/06 08:27:50;;;;;;;6.03;1.92;;;20.20;1.00;;;;;;6199378;28;20116;-82
2024/04/06 08:30:51;;;;;;;7.13;1.50;;;20.50;1.00;;;;;;6168495;28;20049;-84
2024/04/06 08:33:52;;;;;;;6.43;1.80;;;20.60;1.00;;;;;;6187452;28;20073;-84
2024/04/06 08:36:53;;;;;;;4.95;1.58;;;20.90;1.00;;;;;;6190295;28;20132;-85
2024/04/06 08:39:54;;;;;;;5.00;1.40;;;20.80;1.00;;;;;;6189024;28;20058;-85
2024/04/06 08:42:54;;;;;;;6.93;1.60;;;20.60;1.00;;;;;;6175532;28;20054;-85
2024/04/06 08:45:55;;;;;;;8.63;1.90;;;20.70;1.00;;;;;;6157141;28;20068;-84
2024/04/06 08:48:56;;;;;;;9.15;1.70;;;20.40;1.00;;;;;;6205172;28;20062;-88
2024/04/06 08:51:57;;;;;;;7.18;1.85;;;20.30;1.00;;;;;;6195159;28;20057;-80
2024/04/06 08:54:57;;;;;;;4.35;1.40;;;20.20;1.00;;;;;;6201271;28;20046;-85
2024/04/06 08:57:58;;;;;;;7.40;1.50;;;20.10;1.00;;;;;;6175734;28;20100;-84
2024/04/06 09:00:59;;;;;;;10.57;2.13;;;19.80;1.00;;;;;;6166087;28;20163;-84
2024/04/06 09:04:00;;;;;;;8.27;1.85;;;19.90;1.00;;;;;;6179673;28;20551;-85
2024/04/06 09:07:01;;;;;;;8.98;2.15;;;19.90;1.00;;;;;;6194598;28;20053;-84
2024/04/06 09:10:01;;;;;;;6.13;1.83;;;19.70;1.00;;;;;;6191546;28;20054;-87
2024/04/06 09:13:02;;;;;;;7.57;1.88;;;19.80;1.00;;;;;;6187268;28;20100;-87
2024/04/06 09:16:03;;;;;;;8.93;2.20;;;19.70;1.00;;;;;;6170283;28;20053;-86
2024/04/06 09:19:03;;;;;;;8.02;2.03;;;19.80;1.00;;;;;;6163551;28;20065;-90
2024/04/06 09:22:04;;;;;;;5.85;1.70;;;19.60;1.00;;;;;;6203137;28;20058;-89
2024/04/06 09:25:05;;;;;;;6.20;1.88;;;19.70;1.00;;;;;;6186776;28;20057;-87
2024/04/06 09:28:05;;;;;;;8.05;2.10;;;20.10;1.00;;;;;;6186590;28;20065;-87
2024/04/06 09:31:07;;;;;;;7.68;1.80;;;19.90;1.00;;;;;;6186043;28;20050;-88
2024/04/06 09:34:07;;;;;;;10.70;2.10;;;20.00;1.00;;;;;;6188137;28;20062;-88
2024/04/06 09:37:08;;;;;;;9.10;1.98;;;20.00;1.00;;;;;;6187701;28;20572;-88
2024/04/06 09:40:09;;;;;;;6.10;1.70;;;20.20;1.00;;;;;;6187340;28;20050;-88
2024/04/06 09:43:10;;;;;;;5.22;1.38;;;20.20;1.00;;;;;;6190018;28;20054;-88
2024/04/06 09:46:11;;;;;;;8.05;1.90;;;20.30;1.00;;;;;;6173827;28;20429;-88
2024/04/06 09:49:11;;;;;;;8.68;1.70;;;20.70;1.00;;;;;;6163898;28;20060;-88
2024/04/06 09:52:12;;;;;;;9.90;1.80;;;20.80;1.00;;;;;;6202924;28;20061;-88
2024/04/06 09:55:13;;;;;;;10.27;1.50;;;20.80;1.00;;;;;;6186882;28;20061;-89
2024/04/06 09:58:18;;;;;;;6.68;1.73;;;20.90;1.00;;;;;;6203635;28;20449;-88
2024/04/06 10:01:32;;;;;;;6.80;1.70;;;21.00;1.00;;;;;;6187596;28;20084;-85
2024/04/06 10:04:33;;;;;;;5.82;1.52;;;21.20;1.00;;;;;;6186067;28;20058;-84
2024/04/06 10:07:33;;;;;;;8.57;2.05;;;21.10;1.00;;;;;;6199966;28;20073;-83
2024/04/06 10:10:34;;;;;;;4.38;1.48;;;21.00;1.00;;;;;;6201196;28;20425;-83
2024/04/06 10:13:35;;;;;;;6.78;1.83;;;20.70;1.00;;;;;;6195421;28;20057;-87
2024/04/06 10:16:36;;;;;;;7.47;1.92;;;20.70;1.00;;;;;;6202259;28;20096;-87
2024/04/06 10:19:36;;;;;;;10.90;2.13;;;20.60;1.00;;;;;;6163997;28;20066;-88
2024/04/06 10:22:37;;;;;;;6.78;1.70;;;20.50;1.00;;;;;;6207081;28;20575;-89
2024/04/06 10:25:38;;;;;;;10.02;2.28;;;20.60;1.00;;;;;;6207746;28;20137;-87
2024/04/06 10:32:23;;;;;;;9.68;2.42;;;20.60;1.00;;;;;;6201166;28;20034;-91
2024/04/06 10:35:24;;;;;;;12.82;2.33;;;20.70;1.00;;;;;;6191696;28;20069;-88
2024/04/06 10:38:25;;;;;;;7.47;2.33;;;20.90;1.00;;;;;;6191345;28;20056;-90
2024/04/06 10:41:25;;;;;;;9.43;2.00;;;21.70;1.00;;;;;;6193308;28;20058;-90
2024/04/06 10:44:26;;;;;;;6.93;1.77;;;22.00;1.00;;;;;;6184566;28;20057;-88
2024/04/06 10:47:27;;;;;;;7.13;1.80;;;23.00;1.00;;;;;;6191047;28;20064;-90
2024/04/06 10:50:27;;;;;;;9.13;2.20;;;23.00;1.00;;;;;;6207199;28;20057;-90
2024/04/06 10:53:28;;;;;;;8.02;2.10;;;22.70;1.00;;;;;;6191934;28;20057;-89
2024/04/06 10:56:29;;;;;;;7.80;2.00;;;22.20;1.00;;;;;;6190746;28;20054;-88
2024/04/06 10:59:30;;;;;;;13.20;2.28;;;21.80;1.00;;;;;;6172481;28;20090;-90
2024/04/06 11:02:30;;;;;;;9.70;2.22;;;21.70;1.00;;;;;;6191688;28;20060;-88
2024/04/06 11:05:31;;;;;;;12.02;2.13;;;21.60;1.00;;;;;;6189828;28;20116;-90
2024/04/06 11:08:33;;;;;;;7.55;2.00;;;21.70;1.00;;;;;;6191496;28;20059;-88
2024/04/06 11:11:34;;;;;;;7.05;1.77;;;21.60;1.00;;;;;;6206262;28;20501;-88
2024/04/06 11:14:34;;;;;;;11.15;2.17;;;21.30;1.00;;;;;;6176542;28;20142;-89
2024/04/06 11:17:35;;;;;;;8.45;2.40;;;21.00;1.00;;;;;;6192461;28;20572;-88
2024/04/06 11:20:35;;;;;;;13.38;2.70;;;20.90;1.00;;;;;;6191876;28;20057;-90
2024/04/06 11:23:36;;;;;;;12.18;2.78;;;20.90;1.00;;;;;;6208625;28;20064;-89
2024/04/06 11:26:37;;;;;;;12.60;2.30;;;20.90;1.00;;;;;;6191136;28;20482;-89
2024/04/06 11:29:39;;;;;;;9.20;2.45;;;20.80;1.00;;;;;;6176235;28;20387;-85
2024/04/06 11:32:40;;;;;;;8.32;2.40;;;20.60;1.00;;;;;;6187200;28;20493;-90
2024/04/06 11:35:41;;;;;;;12.07;2.88;;;20.60;1.00;;;;;;6180273;28;20061;-89
2024/04/06 11:38:42;;;;;;;9.57;2.30;;;20.60;1.00;;;;;;6199281;28;20053;-90
2024/04/06 11:41:42;;;;;;;10.52;2.72;;;20.50;1.00;;;;;;6189788;28;20144;-91
2024/04/06 11:44:43;;;;;;;12.55;2.53;;;20.40;1.00;;;;;;6170638;28;20065;-90
2024/04/06 11:47:46;;;;;;;11.32;2.83;;;20.40;1.00;;;;;;6191418;28;20532;-90
2024/04/06 11:50:46;;;;;;;8.25;2.40;;;20.60;1.00;;;;;;6183155;28;20682;-91
2024/04/06 11:53:47;;;;;;;7.28;2.35;;;20.90;1.00;;;;;;6178918;28;20058;-85
2024/04/06 11:56:48;;;;;;;13.07;2.47;;;21.40;1.00;;;;;;6179583;28;20058;-88
2024/04/06 11:59:49;;;;;;;9.82;1.92;;;21.60;1.00;;;;;;6188569;28;20561;-86
2024/04/06 12:02:49;;;;;;;7.05;1.92;;;21.70;1.00;;;;;;6176417;28;20058;-84
2024/04/06 12:05:50;;;;;;;8.85;2.65;;;21.90;1.00;;;;;;6177898;28;20506;-81
2024/04/06 12:08:54;;;;;;;10.23;2.30;;;21.80;1.00;;;;;;6189707;28;20061;-83
2024/04/06 12:11:54;;;;;;;7.47;2.15;;;22.30;1.00;;;;;;6180374;28;20050;-81
2024/04/06 12:14:55;;;;;;;9.63;2.05;;;22.60;1.00;;;;;;6179747;28;20097;-79
2024/04/06 12:17:55;;;;;;;8.60;1.90;;;23.00;1.00;;;;;;6188455;28;20061;-80
2024/04/06 12:20:56;;;;;;;9.57;2.83;;;22.70;1.00;;;;;;6185118;28;20128;-82
2024/04/06 12:23:57;;;;;;;9.05;1.90;;;22.30;1.00;;;;;;6172447;28;20086;-80
2024/04/06 12:26:57;;;;;;;9.25;2.30;;;22.00;1.00;;;;;;6194163;28;20480;-82
2024/04/06 12:29:58;;;;;;;13.85;2.72;;;21.70;1.00;;;;;;6189736;28;20094;-81
2024/04/06 12:32:59;;;;;;;12.27;2.20;;;21.90;1.00;;;;;;6193641;28;20054;-80
2024/04/06 12:36:00;;;;;;;14.95;2.00;;;22.00;1.00;;;;;;6202706;28;20527;-81
2024/04/06 12:39:07;;;;;;;13.40;2.00;;;22.10;1.00;;;;;;6197908;28;20054;-83
2024/04/06 12:42:08;;;;;;;8.43;2.13;;;21.50;1.00;;;;;;6175413;28;20215;-83
2024/04/06 12:45:09;;;;;;;14.35;2.63;;;21.70;1.00;;;;;;6175487;28;20097;-84
2024/04/06 12:48:09;;;;;;;7.97;2.08;;;21.80;1.00;;;;;;6185694;28;20054;-86
2024/04/06 12:51:10;;;;;;;12.30;2.65;;;21.70;1.00;;;;;;6186454;28;20064;-79
2024/04/06 12:54:11;;;;;;;8.95;2.15;;;21.60;1.00;;;;;;6199961;28;20058;-82
2024/04/06 13:00:31;;;;;;;6.78;1.77;;;21.40;1.00;;;;;;6178167;28;20058;-83
2024/04/06 13:03:32;;;;;;;45.42;4.50;;;21.10;1.00;;;;;;6201548;28;20084;-83
2024/04/06 13:06:33;;;;;;;13.15;2.55;;;21.10;1.00;;;;;;6202237;28;20061;-80
2024/04/06 13:09:34;;;;;;;12.00;2.53;;;20.90;1.00;;;;;;6183424;28;20140;-83
2024/04/06 13:12:35;;;;;;;13.18;2.90;;;20.70;1.00;;;;;;6201643;28;20050;-84
2024/04/06 13:15:36;;;;;;;13.38;2.47;;;20.70;1.00;;;;;;6182768;28;20524;-82
2024/04/06 13:18:37;;;;;;;13.68;2.80;;;20.70;1.00;;;;;;6185615;28;20128;-83
2024/04/06 13:21:41;;;;;;;14.70;3.10;;;20.70;1.00;;;;;;6201252;28;20531;-83
2024/04/06 13:24:42;;;;;;;12.55;2.88;;;20.70;1.00;;;;;;6202111;28;20107;-84
2024/04/06 13:27:43;;;;;;;15.75;2.88;;;20.40;1.00;;;;;;6201825;28;20386;-82
2024/04/06 13:30:44;;;;;;;12.77;2.80;;;20.50;1.00;;;;;;6195977;28;20097;-81
2024/04/06 13:33:44;;;;;;;12.10;2.60;;;20.70;1.00;;;;;;6201024;28;20053;-82
2024/04/06 13:36:45;;;;;;;16.38;2.55;;;20.70;1.00;;;;;;6201646;28;20057;-82
2024/04/06 13:39:46;;;;;;;11.20;2.85;;;20.60;1.00;;;;;;6183412;28;20141;-84
2024/04/06 13:42:47;;;;;;;12.20;2.60;;;20.70;1.00;;;;;;6185603;28;20421;-83
2024/04/06 13:45:48;;;;;;;12.00;2.50;;;21.20;1.00;;;;;;6182839;28;20058;-80
2024/04/06 13:48:48;;;;;;;10.95;2.47;;;21.30;1.00;;;;;;6185070;28;20057;-79
2024/04/06 13:51:49;;;;;;;15.30;2.13;;;21.10;1.00;;;;;;6170761;28;20059;-84
2024/04/06 13:54:50;;;;;;;10.45;2.63;;;21.00;1.00;;;;;;6180764;28;20054;-82
2024/04/06 13:57:54;;;;;;;8.02;1.90;;;21.00;1.00;;;;;;6200049;28;20139;-84
2024/04/06 14:00:55;;;;;;;8.77;2.70;;;21.50;1.00;;;;;;6180049;28;20439;-82
2024/04/06 14:03:55;;;;;;;9.25;2.15;;;21.50;1.00;;;;;;6179657;28;20051;-82
2024/04/06 14:06:56;;;;;;;12.30;2.50;;;21.10;1.00;;;;;;6184486;28;20068;-82
2024/04/06 14:09:57;;;;;;;8.57;2.10;;;21.00;1.00;;;;;;6194322;28;20406;-82
2024/04/06 14:12:58;;;;;;;14.52;2.40;;;20.60;1.00;;;;;;6199857;28;20532;-83
2024/04/06 14:15:58;;;;;;;15.45;3.03;;;20.20;1.00;;;;;;6182493;28;20081;-82
2024/04/06 14:18:59;;;;;;;10.48;2.35;;;20.80;1.00;;;;;;6201042;28;20050;-81
2024/04/06 14:21:59;;;;;;;12.60;2.85;;;20.90;1.00;;;;;;6201146;28;20047;-82
2024/04/06 14:25:00;;;;;;;11.15;2.45;;;20.60;1.00;;;;;;6201258;28;20097;-81
2024/04/06 14:28:02;;;;;;;11.43;2.50;;;20.70;1.00;;;;;;6200932;28;20421;-81
2024/04/06 14:31:03;;;;;;;12.23;2.25;;;20.70;1.00;;;;;;6182176;28;20552;-82
2024/04/06 14:34:04;;;;;;;14.05;3.03;;;20.30;1.00;;;;;;6183831;28;20058;-82
2024/04/06 14:37:05;;;;;;;12.25;2.50;;;20.20;1.00;;;;;;6184315;28;20320;-82
2024/04/06 14:40:05;;;;;;;15.23;2.60;;;20.30;1.00;;;;;;6192486;28;20075;-83
2024/04/06 14:43:06;;;;;;;12.07;2.40;;;20.00;1.00;;;;;;6200499;28;20093;-82
2024/04/06 14:46:07;;;;;;;9.73;2.50;;;19.90;1.00;;;;;;6177383;28;20490;-81
2024/04/06 14:49:07;;;;;;;9.00;2.50;;;19.80;1.00;;;;;;6188097;28;20123;-80
2024/04/06 14:52:08;;;;;;;12.20;2.88;;;19.80;1.00;;;;;;6199208;28;20413;-80
2024/04/06 14:55:08;;;;;;;11.45;2.33;;;19.60;1.00;;;;;;6179890;28;20050;-82
2024/04/06 14:58:09;;;;;;;9.57;2.10;;;19.50;1.00;;;;;;6196926;28;20064;-81
2024/04/06 15:01:10;;;;;;;10.48;2.25;;;19.70;1.00;;;;;;6175089;28;20050;-82
2024/04/06 15:04:10;;;;;;;5.82;1.52;;;20.00;1.00;;;;;;6199112;28;20084;-85
2024/04/06 15:07:11;;;;;;;7.22;2.10;;;20.00;1.00;;;;;;6171853;28;20058;-85
2024/04/06 15:10:12;;;;;;;10.57;2.20;;;19.70;1.00;;;;;;6179233;28;20085;-82
2024/04/06 15:13:14;;;;;;;8.43;1.95;;;19.60;1.00;;;;;;6203241;28;20144;-81
2024/04/06 15:16:15;;;;;;;9.55;1.73;;;19.50;1.00;;;;;;6174029;28;20061;-81
2024/04/06 15:19:16;;;;;;;11.50;1.83;;;19.30;1.00;;;;;;6164623;28;20054;-83
2024/04/06 15:22:17;;;;;;;11.85;2.10;;;19.00;1.00;;;;;;6221591;28;20180;-82
2024/04/06 15:25:18;;;;;;;8.25;1.55;;;18.80;1.00;;;;;;6186460;28;20478;-81
2024/04/06 15:28:19;;;;;;;7.53;1.70;;;18.90;1.00;;;;;;6203180;28;20108;-82
2024/04/06 15:31:20;;;;;;;8.80;1.80;;;18.70;1.00;;;;;;6185412;28;20058;-82
2024/04/06 15:34:21;;;;;;;11.13;2.20;;;18.50;1.00;;;;;;6190286;28;20073;-82
2024/04/06 15:37:21;;;;;;;10.23;1.85;;;18.50;1.00;;;;;;6187660;28;20053;-81
2024/04/06 15:40:22;;;;;;;9.93;2.42;;;18.80;1.00;;;;;;6199544;28;20619;-83
2024/04/06 15:43:23;;;;;;;7.60;1.85;;;19.00;1.00;;;;;;6202451;28;20054;-82
2024/04/06 15:46:23;;;;;;;12.80;2.30;;;19.00;1.00;;;;;;6184030;28;20049;-82
2024/04/06 15:49:24;;;;;;;11.57;2.13;;;19.10;1.00;;;;;;6188236;28;20081;-82
2024/04/06 15:52:25;;;;;;;10.77;2.40;;;19.00;1.00;;;;;;6186844;28;20058;-79